sensor_id;sensor_type;location;lat;lon;timestamp;temperature;humidity
43530;DHT22;55654;50.966;6.878;2023-11-19T00:01:44;9.80;99.90
43530;DHT22;55654;50.966;6.878;2023-11-19T00:04:17;9.80;99.90
43530;DHT22;55654;50.966;6.878;2023-11-19T00:06:50;10.00;99.90
43530;DHT22;55654;50.966;6.878;2023-11-19T00:09:17;9.90;99.90
43530;DHT22;55654;50.966;6.878;2023-11-19T00:11:43;9.90;99.90
43530;DHT22;55654;50.966;6.878;2023-11-19T00:14:21;9.90;99.90
43530;DHT22;55654;50.966;6.878;2023-11-19T00:16:50;9.90;99.90
43530;DHT22;55654;50.966;6.878;2023-11-19T00:19:19;9.90;99.90
43530;DHT22;55654;50.966;6.878;2023-11-19T00:21:47;9.90;99.90
43530;DHT22;55654;50.966;6.878;2023-11-19T00:24:20;10.00;99.90
43530;DHT22;55654;50.966;6.878;2023-11-19T00:26:49;10.00;99.90
43530;DHT22;55654;50.966;6.878;2023-11-19T00:29:15;10.00;99.90
43530;DHT22;55654;50.966;6.878;2023-11-19T00:31:45;10.00;99.90
43530;DHT22;55654;50.966;6.878;2023-11-19T00:34:11;10.10;99.90
43530;DHT22;55654;50.966;6.878;2023-11-19T00:36:41;10.10;99.90
43530;DHT22;55654;50.966;6.878;2023-11-19T00:39:09;10.10;99.90
43530;DHT22;55654;50.966;6.878;2023-11-19T00:41:36;10.20;99.90
43530;DHT22;55654;50.966;6.878;2023-11-19T00:44:02;10.20;99.90
43530;DHT22;55654;50.966;6.878;2023-11-19T00:46:28;10.10;99.90
43530;DHT22;55654;50.966;6.878;2023-11-19T00:48:54;10.20;99.90
43530;DHT22;55654;50.966;6.878;2023-11-19T00:51:30;10.30;99.90
43530;DHT22;55654;50.966;6.878;2023-11-19T00:53:57;10.30;99.90
43530;DHT22;55654;50.966;6.878;2023-11-19T00:56:23;10.40;99.90
43530;DHT22;55654;50.966;6.878;2023-11-19T00:58:51;10.50;99.90
43530;DHT22;55654;50.966;6.878;2023-11-19T01:01:26;10.80;99.90
43530;DHT22;55654;50.966;6.878;2023-11-19T01:03:57;11.00;99.90
43530;DHT22;55654;50.966;6.878;2023-11-19T01:06:27;11.10;99.90
43530;DHT22;55654;50.966;6.878;2023-11-19T01:08:54;11.20;99.90
43530;DHT22;55654;50.966;6.878;2023-11-19T01:11:22;11.30;99.90
43530;DHT22;55654;50.966;6.878;2023-11-19T01:13:51;11.40;99.90
43530;DHT22;55654;50.966;6.878;2023-11-19T01:16:17;11.60;99.90
43530;DHT22;55654;50.966;6.878;2023-11-19T01:18:49;11.50;99.90
43530;DHT22;55654;50.966;6.878;2023-11-19T01:21:17;11.70;99.90
43530;DHT22;55654;50.966;6.878;2023-11-19T01:23:46;11.50;99.90
43530;DHT22;55654;50.966;6.878;2023-11-19T01:26:12;11.70;99.90
43530;DHT22;55654;50.966;6.878;2023-11-19T01:28:40;11.80;99.90
43530;DHT22;55654;50.966;6.878;2023-11-19T01:31:15;11.70;99.90
43530;DHT22;55654;50.966;6.878;2023-11-19T01:33:44;11.80;99.90
43530;DHT22;55654;50.966;6.878;2023-11-19T01:36:15;11.80;99.90
43530;DHT22;55654;50.966;6.878;2023-11-19T01:38:43;11.80;99.90
43530;DHT22;55654;50.966;6.878;2023-11-19T01:41:14;11.80;99.90
43530;DHT22;55654;50.966;6.878;2023-11-19T01:43:46;11.70;99.90
43530;DHT22;55654;50.966;6.878;2023-11-19T01:46:14;11.90;99.90
43530;DHT22;55654;50.966;6.878;2023-11-19T01:48:50;11.90;99.90
43530;DHT22;55654;50.966;6.878;2023-11-19T01:51:19;11.90;99.90
43530;DHT22;55654;50.966;6.878;2023-11-19T01:53:49;11.90;99.90
43530;DHT22;55654;50.966;6.878;2023-11-19T01:56:15;12.00;99.90
43530;DHT22;55654;50.966;6.878;2023-11-19T01:58:43;11.90;99.90
43530;DHT22;55654;50.966;6.878;2023-11-19T02:01:10;12.00;99.90
43530;DHT22;55654;50.966;6.878;2023-11-19T02:03:40;12.00;99.90
43530;DHT22;55654;50.966;6.878;2023-11-19T02:06:15;12.00;99.90
43530;DHT22;55654;50.966;6.878;2023-11-19T02:08:42;12.00;99.90
43530;DHT22;55654;50.966;6.878;2023-11-19T02:11:11;12.10;99.90
43530;DHT22;55654;50.966;6.878;2023-11-19T02:13:37;12.10;99.90
43530;DHT22;55654;50.966;6.878;2023-11-19T02:16:06;12.10;99.90
43530;DHT22;55654;50.966;6.878;2023-11-19T02:18:33;12.00;99.90
43530;DHT22;55654;50.966;6.878;2023-11-19T02:20:59;12.10;99.90
43530;DHT22;55654;50.966;6.878;2023-11-19T02:23:32;12.00;99.90
43530;DHT22;55654;50.966;6.878;2023-11-19T02:28:37;12.10;99.90
43530;DHT22;55654;50.966;6.878;2023-11-19T02:31:05;12.10;99.90
43530;DHT22;55654;50.966;6.878;2023-11-19T02:33:40;12.00;99.90
43530;DHT22;55654;50.966;6.878;2023-11-19T02:36:08;12.10;99.90
43530;DHT22;55654;50.966;6.878;2023-11-19T02:38:39;12.10;99.90
43530;DHT22;55654;50.966;6.878;2023-11-19T02:41:16;12.10;99.90
43530;DHT22;55654;50.966;6.878;2023-11-19T02:43:47;12.20;99.90
43530;DHT22;55654;50.966;6.878;2023-11-19T02:46:14;12.10;99.90
43530;DHT22;55654;50.966;6.878;2023-11-19T02:48:40;12.10;99.90
43530;DHT22;55654;50.966;6.878;2023-11-19T02:51:16;12.10;99.90
43530;DHT22;55654;50.966;6.878;2023-11-19T02:53:48;12.10;99.90
43530;DHT22;55654;50.966;6.878;2023-11-19T02:56:14;12.10;99.90
43530;DHT22;55654;50.966;6.878;2023-11-19T02:58:53;12.10;99.90
43530;DHT22;55654;50.966;6.878;2023-11-19T03:01:23;12.00;99.90
43530;DHT22;55654;50.966;6.878;2023-11-19T03:03:55;12.00;99.90
43530;DHT22;55654;50.966;6.878;2023-11-19T03:06:22;12.00;99.90
43530;DHT22;55654;50.966;6.878;2023-11-19T03:08:57;12.00;99.90
43530;DHT22;55654;50.966;6.878;2023-11-19T03:11:40;11.90;99.90
43530;DHT22;55654;50.966;6.878;2023-11-19T03:14:11;11.90;99.90
43530;DHT22;55654;50.966;6.878;2023-11-19T03:16:47;12.00;99.90
43530;DHT22;55654;50.966;6.878;2023-11-19T03:19:18;12.00;99.90
43530;DHT22;55654;50.966;6.878;2023-11-19T03:21:44;12.10;99.90
43530;DHT22;55654;50.966;6.878;2023-11-19T03:24:17;12.10;99.90
43530;DHT22;55654;50.966;6.878;2023-11-19T03:26:53;12.10;99.90
43530;DHT22;55654;50.966;6.878;2023-11-19T03:29:22;12.10;99.90
43530;DHT22;55654;50.966;6.878;2023-11-19T03:31:51;12.10;99.90
43530;DHT22;55654;50.966;6.878;2023-11-19T03:34:25;12.10;99.90
43530;DHT22;55654;50.966;6.878;2023-11-19T03:36:55;12.10;99.90
43530;DHT22;55654;50.966;6.878;2023-11-19T03:39:23;12.10;99.90
43530;DHT22;55654;50.966;6.878;2023-11-19T03:41:53;12.10;99.90
43530;DHT22;55654;50.966;6.878;2023-11-19T03:44:23;12.10;99.90
43530;DHT22;55654;50.966;6.878;2023-11-19T03:46:56;12.20;99.90
43530;DHT22;55654;50.966;6.878;2023-11-19T03:49:29;12.30;99.90
43530;DHT22;55654;50.966;6.878;2023-11-19T03:51:55;12.30;99.90
43530;DHT22;55654;50.966;6.878;2023-11-19T03:54:23;12.30;99.90
43530;DHT22;55654;50.966;6.878;2023-11-19T03:57:02;12.30;99.90
43530;DHT22;55654;50.966;6.878;2023-11-19T03:59:29;12.20;99.90
43530;DHT22;55654;50.966;6.878;2023-11-19T04:01:59;12.30;99.90
43530;DHT22;55654;50.966;6.878;2023-11-19T04:04:36;12.20;99.90
43530;DHT22;55654;50.966;6.878;2023-11-19T04:07:09;12.30;99.90
43530;DHT22;55654;50.966;6.878;2023-11-19T04:09:38;12.20;99.90
43530;DHT22;55654;50.966;6.878;2023-11-19T04:12:06;12.20;99.90
43530;DHT22;55654;50.966;6.878;2023-11-19T04:14:39;12.30;99.90
43530;DHT22;55654;50.966;6.878;2023-11-19T04:17:06;12.30;99.90
43530;DHT22;55654;50.966;6.878;2023-11-19T04:19:36;12.30;99.90
43530;DHT22;55654;50.966;6.878;2023-11-19T04:22:07;12.30;99.90
43530;DHT22;55654;50.966;6.878;2023-11-19T04:24:36;12.10;99.90
43530;DHT22;55654;50.966;6.878;2023-11-19T04:27:15;12.10;99.90
43530;DHT22;55654;50.966;6.878;2023-11-19T04:29:54;12.20;99.90
43530;DHT22;55654;50.966;6.878;2023-11-19T04:32:28;12.10;99.90
43530;DHT22;55654;50.966;6.878;2023-11-19T04:34:59;12.20;99.90
43530;DHT22;55654;50.966;6.878;2023-11-19T04:37:37;12.10;99.90
43530;DHT22;55654;50.966;6.878;2023-11-19T04:40:08;12.10;99.90
43530;DHT22;55654;50.966;6.878;2023-11-19T04:42:40;12.10;99.90
43530;DHT22;55654;50.966;6.878;2023-11-19T04:45:07;12.10;99.90
43530;DHT22;55654;50.966;6.878;2023-11-19T04:47:33;12.20;99.90
43530;DHT22;55654;50.966;6.878;2023-11-19T04:50:12;12.20;99.90
43530;DHT22;55654;50.966;6.878;2023-11-19T04:52:38;12.20;99.90
43530;DHT22;55654;50.966;6.878;2023-11-19T04:55:15;12.30;99.90
43530;DHT22;55654;50.966;6.878;2023-11-19T04:57:41;12.30;99.90
43530;DHT22;55654;50.966;6.878;2023-11-19T05:00:09;12.30;99.90
43530;DHT22;55654;50.966;6.878;2023-11-19T05:02:41;12.30;99.90
43530;DHT22;55654;50.966;6.878;2023-11-19T05:05:07;12.20;99.90
43530;DHT22;55654;50.966;6.878;2023-11-19T05:07:38;12.20;99.90
43530;DHT22;55654;50.966;6.878;2023-11-19T05:10:11;12.10;99.90
43530;DHT22;55654;50.966;6.878;2023-11-19T05:12:37;12.20;99.90
43530;DHT22;55654;50.966;6.878;2023-11-19T05:15:04;12.10;99.90
43530;DHT22;55654;50.966;6.878;2023-11-19T05:17:30;12.20;99.90
43530;DHT22;55654;50.966;6.878;2023-11-19T05:19:56;12.20;99.90
43530;DHT22;55654;50.966;6.878;2023-11-19T05:22:31;12.20;99.90
43530;DHT22;55654;50.966;6.878;2023-11-19T05:25:09;12.30;99.90
43530;DHT22;55654;50.966;6.878;2023-11-19T05:27:37;12.30;99.90
43530;DHT22;55654;50.966;6.878;2023-11-19T05:30:05;12.10;99.90
43530;DHT22;55654;50.966;6.878;2023-11-19T05:32:38;12.30;99.90
43530;DHT22;55654;50.966;6.878;2023-11-19T05:35:07;12.30;99.90
43530;DHT22;55654;50.966;6.878;2023-11-19T05:37:35;12.30;99.90
43530;DHT22;55654;50.966;6.878;2023-11-19T05:40:01;12.20;99.90
43530;DHT22;55654;50.966;6.878;2023-11-19T05:42:34;12.30;99.90
43530;DHT22;55654;50.966;6.878;2023-11-19T05:45:02;12.20;99.90
43530;DHT22;55654;50.966;6.878;2023-11-19T05:47:28;12.20;99.90
43530;DHT22;55654;50.966;6.878;2023-11-19T05:49:57;12.20;99.90
43530;DHT22;55654;50.966;6.878;2023-11-19T05:52:22;12.20;99.90
43530;DHT22;55654;50.966;6.878;2023-11-19T05:54:51;12.20;99.90
43530;DHT22;55654;50.966;6.878;2023-11-19T05:57:24;12.30;99.90
43530;DHT22;55654;50.966;6.878;2023-11-19T05:59:50;12.30;99.90
43530;DHT22;55654;50.966;6.878;2023-11-19T06:02:17;12.30;99.90
43530;DHT22;55654;50.966;6.878;2023-11-19T06:04:42;12.30;99.90
43530;DHT22;55654;50.966;6.878;2023-11-19T06:07:25;12.30;99.90
43530;DHT22;55654;50.966;6.878;2023-11-19T06:09:58;12.20;99.90
43530;DHT22;55654;50.966;6.878;2023-11-19T06:12:33;12.30;99.90
43530;DHT22;55654;50.966;6.878;2023-11-19T06:15:00;12.40;99.90
43530;DHT22;55654;50.966;6.878;2023-11-19T06:17:34;12.40;99.90
43530;DHT22;55654;50.966;6.878;2023-11-19T06:20:00;12.20;99.90
43530;DHT22;55654;50.966;6.878;2023-11-19T06:22:26;12.40;99.90
43530;DHT22;55654;50.966;6.878;2023-11-19T06:24:52;12.40;99.90
43530;DHT22;55654;50.966;6.878;2023-11-19T06:27:21;12.30;99.90
43530;DHT22;55654;50.966;6.878;2023-11-19T06:29:47;12.40;99.90
43530;DHT22;55654;50.966;6.878;2023-11-19T06:32:13;12.30;99.90
43530;DHT22;55654;50.966;6.878;2023-11-19T06:34:44;12.40;99.90
43530;DHT22;55654;50.966;6.878;2023-11-19T06:37:10;12.40;99.90
43530;DHT22;55654;50.966;6.878;2023-11-19T06:39:42;12.40;99.90
43530;DHT22;55654;50.966;6.878;2023-11-19T06:42:08;12.40;99.90
43530;DHT22;55654;50.966;6.878;2023-11-19T06:44:38;12.40;99.90
43530;DHT22;55654;50.966;6.878;2023-11-19T06:47:12;12.30;99.90
43530;DHT22;55654;50.966;6.878;2023-11-19T06:49:39;12.30;99.90
43530;DHT22;55654;50.966;6.878;2023-11-19T06:52:14;12.30;99.90
43530;DHT22;55654;50.966;6.878;2023-11-19T06:57:38;12.30;99.90
43530;DHT22;55654;50.966;6.878;2023-11-19T07:00:07;12.30;99.90
43530;DHT22;55654;50.966;6.878;2023-11-19T07:02:34;12.30;99.90
43530;DHT22;55654;50.966;6.878;2023-11-19T07:05:02;12.20;99.90
43530;DHT22;55654;50.966;6.878;2023-11-19T07:07:31;12.30;99.90
43530;DHT22;55654;50.966;6.878;2023-11-19T07:10:02;12.20;99.90
43530;DHT22;55654;50.966;6.878;2023-11-19T07:12:37;12.20;99.90
43530;DHT22;55654;50.966;6.878;2023-11-19T07:15:04;12.30;99.90
43530;DHT22;55654;50.966;6.878;2023-11-19T07:17:38;12.30;99.90
43530;DHT22;55654;50.966;6.878;2023-11-19T07:22:47;12.10;99.90
43530;DHT22;55654;50.966;6.878;2023-11-19T07:25:25;12.20;99.90
43530;DHT22;55654;50.966;6.878;2023-11-19T07:27:52;12.10;99.90
43530;DHT22;55654;50.966;6.878;2023-11-19T07:30:21;12.10;99.90
43530;DHT22;55654;50.966;6.878;2023-11-19T07:32:47;12.10;99.90
43530;DHT22;55654;50.966;6.878;2023-11-19T07:35:28;12.10;99.90
43530;DHT22;55654;50.966;6.878;2023-11-19T07:38:07;12.10;99.90
43530;DHT22;55654;50.966;6.878;2023-11-19T07:40:40;12.10;99.90
43530;DHT22;55654;50.966;6.878;2023-11-19T07:43:11;12.10;99.90
43530;DHT22;55654;50.966;6.878;2023-11-19T07:45:41;12.20;99.90
43530;DHT22;55654;50.966;6.878;2023-11-19T07:48:11;12.20;99.90
43530;DHT22;55654;50.966;6.878;2023-11-19T07:50:41;12.20;99.90
43530;DHT22;55654;50.966;6.878;2023-11-19T07:53:07;12.00;99.90
43530;DHT22;55654;50.966;6.878;2023-11-19T07:55:40;12.00;99.90
43530;DHT22;55654;50.966;6.878;2023-11-19T07:58:11;12.00;99.90
43530;DHT22;55654;50.966;6.878;2023-11-19T08:00:42;12.20;99.90
43530;DHT22;55654;50.966;6.878;2023-11-19T08:03:10;12.00;99.90
43530;DHT22;55654;50.966;6.878;2023-11-19T08:05:41;12.10;99.90
43530;DHT22;55654;50.966;6.878;2023-11-19T08:08:14;12.10;99.90
43530;DHT22;55654;50.966;6.878;2023-11-19T08:10:44;12.10;99.90
43530;DHT22;55654;50.966;6.878;2023-11-19T08:13:11;12.10;99.90
43530;DHT22;55654;50.966;6.878;2023-11-19T08:15:54;12.00;99.90
43530;DHT22;55654;50.966;6.878;2023-11-19T08:18:24;12.00;99.90
43530;DHT22;55654;50.966;6.878;2023-11-19T08:21:02;12.00;99.90
43530;DHT22;55654;50.966;6.878;2023-11-19T08:23:39;12.10;99.90
43530;DHT22;55654;50.966;6.878;2023-11-19T08:26:12;12.10;99.90
43530;DHT22;55654;50.966;6.878;2023-11-19T08:28:44;12.20;99.90
43530;DHT22;55654;50.966;6.878;2023-11-19T08:31:10;12.20;99.90
43530;DHT22;55654;50.966;6.878;2023-11-19T08:33:36;12.20;99.90
43530;DHT22;55654;50.966;6.878;2023-11-19T08:36:03;12.20;99.90
43530;DHT22;55654;50.966;6.878;2023-11-19T08:38:29;12.20;99.90
43530;DHT22;55654;50.966;6.878;2023-11-19T08:41:00;12.30;99.90
43530;DHT22;55654;50.966;6.878;2023-11-19T08:43:28;12.20;99.90
43530;DHT22;55654;50.966;6.878;2023-11-19T08:45:58;12.30;99.90
43530;DHT22;55654;50.966;6.878;2023-11-19T08:48:26;12.30;99.90
43530;DHT22;55654;50.966;6.878;2023-11-19T08:50:59;12.40;99.90
43530;DHT22;55654;50.966;6.878;2023-11-19T08:53:27;12.40;99.90
43530;DHT22;55654;50.966;6.878;2023-11-19T08:55:57;12.40;99.90
43530;DHT22;55654;50.966;6.878;2023-11-19T08:58:30;12.30;99.90
43530;DHT22;55654;50.966;6.878;2023-11-19T09:00:59;12.40;99.90
43530;DHT22;55654;50.966;6.878;2023-11-19T09:03:27;12.50;99.90
43530;DHT22;55654;50.966;6.878;2023-11-19T09:05:55;12.50;99.90
43530;DHT22;55654;50.966;6.878;2023-11-19T09:08:21;12.50;99.90
43530;DHT22;55654;50.966;6.878;2023-11-19T09:10:48;12.50;99.90
43530;DHT22;55654;50.966;6.878;2023-11-19T09:13:14;12.50;99.90
43530;DHT22;55654;50.966;6.878;2023-11-19T09:15:40;12.50;99.90
43530;DHT22;55654;50.966;6.878;2023-11-19T09:18:07;12.50;99.90
43530;DHT22;55654;50.966;6.878;2023-11-19T09:20:36;12.60;99.90
43530;DHT22;55654;50.966;6.878;2023-11-19T09:23:04;12.60;99.90
43530;DHT22;55654;50.966;6.878;2023-11-19T09:25:30;12.60;99.90
43530;DHT22;55654;50.966;6.878;2023-11-19T09:27:59;12.60;99.90
43530;DHT22;55654;50.966;6.878;2023-11-19T09:30:25;12.50;99.90
43530;DHT22;55654;50.966;6.878;2023-11-19T09:32:51;12.60;99.90
43530;DHT22;55654;50.966;6.878;2023-11-19T09:35:16;12.60;99.90
43530;DHT22;55654;50.966;6.878;2023-11-19T09:37:45;12.60;99.90
43530;DHT22;55654;50.966;6.878;2023-11-19T09:40:16;12.60;99.90
43530;DHT22;55654;50.966;6.878;2023-11-19T09:42:47;12.70;99.90
43530;DHT22;55654;50.966;6.878;2023-11-19T09:45:16;12.80;99.90
43530;DHT22;55654;50.966;6.878;2023-11-19T09:47:46;12.80;99.90
43530;DHT22;55654;50.966;6.878;2023-11-19T09:50:18;12.90;99.90
43530;DHT22;55654;50.966;6.878;2023-11-19T09:52:45;13.00;99.90
43530;DHT22;55654;50.966;6.878;2023-11-19T09:55:11;13.10;99.90
43530;DHT22;55654;50.966;6.878;2023-11-19T09:57:40;13.10;99.90
43530;DHT22;55654;50.966;6.878;2023-11-19T10:00:15;13.10;99.90
43530;DHT22;55654;50.966;6.878;2023-11-19T10:02:43;13.10;99.90
43530;DHT22;55654;50.966;6.878;2023-11-19T10:05:11;13.10;99.90
43530;DHT22;55654;50.966;6.878;2023-11-19T10:07:46;13.00;99.90
43530;DHT22;55654;50.966;6.878;2023-11-19T10:10:12;13.00;99.90
43530;DHT22;55654;50.966;6.878;2023-11-19T10:12:47;13.00;99.90
43530;DHT22;55654;50.966;6.878;2023-11-19T10:15:36;13.10;99.90
43530;DHT22;55654;50.966;6.878;2023-11-19T10:18:02;13.20;99.90
43530;DHT22;55654;50.966;6.878;2023-11-19T10:20:47;13.10;99.90
43530;DHT22;55654;50.966;6.878;2023-11-19T10:23:18;13.00;99.90
43530;DHT22;55654;50.966;6.878;2023-11-19T10:25:44;13.10;99.90
43530;DHT22;55654;50.966;6.878;2023-11-19T10:28:10;13.10;99.90
43530;DHT22;55654;50.966;6.878;2023-11-19T10:30:38;13.20;99.90
43530;DHT22;55654;50.966;6.878;2023-11-19T10:33:14;13.30;99.90
43530;DHT22;55654;50.966;6.878;2023-11-19T10:35:55;13.30;99.90
43530;DHT22;55654;50.966;6.878;2023-11-19T10:38:26;13.30;99.90
43530;DHT22;55654;50.966;6.878;2023-11-19T10:41:01;13.40;99.90
43530;DHT22;55654;50.966;6.878;2023-11-19T10:43:44;13.40;99.90
43530;DHT22;55654;50.966;6.878;2023-11-19T10:46:13;13.40;99.90
43530;DHT22;55654;50.966;6.878;2023-11-19T10:48:52;13.50;99.90
43530;DHT22;55654;50.966;6.878;2023-11-19T10:51:20;13.40;99.90
43530;DHT22;55654;50.966;6.878;2023-11-19T10:53:49;13.50;99.90
43530;DHT22;55654;50.966;6.878;2023-11-19T10:56:17;13.40;99.90
43530;DHT22;55654;50.966;6.878;2023-11-19T10:58:45;13.50;99.90
43530;DHT22;55654;50.966;6.878;2023-11-19T11:01:24;13.50;99.90
43530;DHT22;55654;50.966;6.878;2023-11-19T11:03:53;13.50;99.90
43530;DHT22;55654;50.966;6.878;2023-11-19T11:06:26;13.60;99.90
43530;DHT22;55654;50.966;6.878;2023-11-19T11:08:58;13.60;99.90
43530;DHT22;55654;50.966;6.878;2023-11-19T11:11:26;13.60;99.90
43530;DHT22;55654;50.966;6.878;2023-11-19T11:13:53;13.50;99.90
43530;DHT22;55654;50.966;6.878;2023-11-19T11:16:22;13.50;99.90
43530;DHT22;55654;50.966;6.878;2023-11-19T11:18:51;13.40;99.90
43530;DHT22;55654;50.966;6.878;2023-11-19T11:21:22;13.00;99.90
43530;DHT22;55654;50.966;6.878;2023-11-19T11:24:33;12.70;99.90
43530;DHT22;55654;50.966;6.878;2023-11-19T11:33:02;12.60;99.90
43530;DHT22;55654;50.966;6.878;2023-11-19T11:36:17;12.60;99.90
43530;DHT22;55654;50.966;6.878;2023-11-19T11:38:37;12.80;99.90
43530;DHT22;55654;50.966;6.878;2023-11-19T11:41:18;13.00;99.90
43530;DHT22;55654;50.966;6.878;2023-11-19T11:43:54;13.10;99.90
43530;DHT22;55654;50.966;6.878;2023-11-19T11:49:06;13.10;99.90
43530;DHT22;55654;50.966;6.878;2023-11-19T11:54:26;13.20;99.90
43530;DHT22;55654;50.966;6.878;2023-11-19T12:02:10;13.20;99.90
43530;DHT22;55654;50.966;6.878;2023-11-19T12:04:50;13.30;99.90
43530;DHT22;55654;50.966;6.878;2023-11-19T12:07:27;13.40;99.90
43530;DHT22;55654;50.966;6.878;2023-11-19T12:10:07;13.40;99.90
43530;DHT22;55654;50.966;6.878;2023-11-19T12:12:37;13.50;99.90
43530;DHT22;55654;50.966;6.878;2023-11-19T12:15:07;13.50;99.90
43530;DHT22;55654;50.966;6.878;2023-11-19T12:17:49;13.50;99.90
43530;DHT22;55654;50.966;6.878;2023-11-19T12:20:16;13.60;99.90
43530;DHT22;55654;50.966;6.878;2023-11-19T12:22:47;13.70;99.90
43530;DHT22;55654;50.966;6.878;2023-11-19T12:25:17;13.60;99.90
43530;DHT22;55654;50.966;6.878;2023-11-19T12:27:55;13.60;99.90
43530;DHT22;55654;50.966;6.878;2023-11-19T12:30:26;13.60;99.90
43530;DHT22;55654;50.966;6.878;2023-11-19T12:32:53;13.70;99.90
43530;DHT22;55654;50.966;6.878;2023-11-19T12:35:25;13.60;99.90
43530;DHT22;55654;50.966;6.878;2023-11-19T12:37:53;13.80;99.90
43530;DHT22;55654;50.966;6.878;2023-11-19T12:40:25;13.70;99.90
43530;DHT22;55654;50.966;6.878;2023-11-19T12:42:54;13.70;99.90
43530;DHT22;55654;50.966;6.878;2023-11-19T12:45:20;13.80;99.90
43530;DHT22;55654;50.966;6.878;2023-11-19T12:47:49;13.80;99.90
43530;DHT22;55654;50.966;6.878;2023-11-19T12:50:20;13.70;99.90
43530;DHT22;55654;50.966;6.878;2023-11-19T12:53:04;13.80;99.90
43530;DHT22;55654;50.966;6.878;2023-11-19T12:55:33;13.70;99.90
43530;DHT22;55654;50.966;6.878;2023-11-19T12:57:58;13.50;99.90
43530;DHT22;55654;50.966;6.878;2023-11-19T13:00:27;13.60;99.90
43530;DHT22;55654;50.966;6.878;2023-11-19T13:02:56;13.50;99.90
43530;DHT22;55654;50.966;6.878;2023-11-19T13:05:33;13.70;99.90
43530;DHT22;55654;50.966;6.878;2023-11-19T13:08:12;13.70;99.90
43530;DHT22;55654;50.966;6.878;2023-11-19T13:10:53;13.70;99.90
43530;DHT22;55654;50.966;6.878;2023-11-19T13:13:21;13.70;99.90
43530;DHT22;55654;50.966;6.878;2023-11-19T13:15:50;13.70;99.90
43530;DHT22;55654;50.966;6.878;2023-11-19T13:18:16;13.70;99.90
43530;DHT22;55654;50.966;6.878;2023-11-19T13:20:45;13.80;99.90
43530;DHT22;55654;50.966;6.878;2023-11-19T13:23:10;13.80;99.90
43530;DHT22;55654;50.966;6.878;2023-11-19T13:25:39;13.80;99.90
43530;DHT22;55654;50.966;6.878;2023-11-19T13:28:05;13.80;99.90
43530;DHT22;55654;50.966;6.878;2023-11-19T13:30:33;13.80;99.90
43530;DHT22;55654;50.966;6.878;2023-11-19T13:33:04;13.70;99.90
43530;DHT22;55654;50.966;6.878;2023-11-19T13:35:29;13.60;99.90
43530;DHT22;55654;50.966;6.878;2023-11-19T13:37:55;13.70;99.90
43530;DHT22;55654;50.966;6.878;2023-11-19T13:40:21;13.70;99.90
43530;DHT22;55654;50.966;6.878;2023-11-19T13:42:47;13.70;99.90
43530;DHT22;55654;50.966;6.878;2023-11-19T13:45:16;13.50;99.90
43530;DHT22;55654;50.966;6.878;2023-11-19T13:47:47;13.70;99.90
43530;DHT22;55654;50.966;6.878;2023-11-19T13:50:16;13.80;99.90
43530;DHT22;55654;50.966;6.878;2023-11-19T13:52:46;13.80;99.90
43530;DHT22;55654;50.966;6.878;2023-11-19T13:55:13;13.90;99.90
43530;DHT22;55654;50.966;6.878;2023-11-19T13:57:40;13.90;99.90
43530;DHT22;55654;50.966;6.878;2023-11-19T14:00:10;14.00;99.90
43530;DHT22;55654;50.966;6.878;2023-11-19T14:02:41;13.80;99.90
43530;DHT22;55654;50.966;6.878;2023-11-19T14:05:20;13.90;99.90
43530;DHT22;55654;50.966;6.878;2023-11-19T14:07:46;13.90;99.90
43530;DHT22;55654;50.966;6.878;2023-11-19T14:13:16;13.80;99.90
43530;DHT22;55654;50.966;6.878;2023-11-19T14:15:49;13.70;99.90
43530;DHT22;55654;50.966;6.878;2023-11-19T14:18:18;13.70;99.90
43530;DHT22;55654;50.966;6.878;2023-11-19T14:20:49;13.70;99.90
43530;DHT22;55654;50.966;6.878;2023-11-19T14:23:22;13.70;99.90
43530;DHT22;55654;50.966;6.878;2023-11-19T14:25:49;13.70;99.90
43530;DHT22;55654;50.966;6.878;2023-11-19T14:28:22;13.70;99.90
43530;DHT22;55654;50.966;6.878;2023-11-19T14:30:52;13.70;99.90
43530;DHT22;55654;50.966;6.878;2023-11-19T14:33:24;13.70;99.90
43530;DHT22;55654;50.966;6.878;2023-11-19T14:35:57;13.70;99.90
43530;DHT22;55654;50.966;6.878;2023-11-19T14:38:33;13.70;99.90
43530;DHT22;55654;50.966;6.878;2023-11-19T14:40:59;13.70;99.90
43530;DHT22;55654;50.966;6.878;2023-11-19T14:43:27;13.70;99.90
43530;DHT22;55654;50.966;6.878;2023-11-19T14:45:53;13.70;99.90
43530;DHT22;55654;50.966;6.878;2023-11-19T14:48:19;13.60;99.90
43530;DHT22;55654;50.966;6.878;2023-11-19T14:50:47;13.50;99.90
43530;DHT22;55654;50.966;6.878;2023-11-19T14:53:13;13.60;99.90
43530;DHT22;55654;50.966;6.878;2023-11-19T14:55:41;13.50;99.90
43530;DHT22;55654;50.966;6.878;2023-11-19T14:58:06;13.60;99.90
43530;DHT22;55654;50.966;6.878;2023-11-19T15:00:45;13.60;99.90
43530;DHT22;55654;50.966;6.878;2023-11-19T15:03:10;13.50;99.90
43530;DHT22;55654;50.966;6.878;2023-11-19T15:05:37;13.50;99.90
43530;DHT22;55654;50.966;6.878;2023-11-19T15:08:08;13.50;99.90
43530;DHT22;55654;50.966;6.878;2023-11-19T15:10:51;13.30;99.90
43530;DHT22;55654;50.966;6.878;2023-11-19T15:13:18;13.40;99.90
43530;DHT22;55654;50.966;6.878;2023-11-19T15:15:46;13.40;99.90
43530;DHT22;55654;50.966;6.878;2023-11-19T15:18:16;13.40;99.90
43530;DHT22;55654;50.966;6.878;2023-11-19T15:20:43;13.30;99.90
43530;DHT22;55654;50.966;6.878;2023-11-19T15:23:15;13.30;99.90
43530;DHT22;55654;50.966;6.878;2023-11-19T15:25:44;13.30;99.90
43530;DHT22;55654;50.966;6.878;2023-11-19T15:28:15;13.20;99.90
43530;DHT22;55654;50.966;6.878;2023-11-19T15:30:44;12.90;99.90
43530;DHT22;55654;50.966;6.878;2023-11-19T15:33:10;12.50;99.90
43530;DHT22;55654;50.966;6.878;2023-11-19T15:35:38;12.20;99.90
43530;DHT22;55654;50.966;6.878;2023-11-19T15:38:11;12.00;99.90
43530;DHT22;55654;50.966;6.878;2023-11-19T15:40:47;11.80;99.90
43530;DHT22;55654;50.966;6.878;2023-11-19T15:43:19;11.50;99.90
43530;DHT22;55654;50.966;6.878;2023-11-19T15:45:48;11.30;99.90
43530;DHT22;55654;50.966;6.878;2023-11-19T15:48:14;11.40;99.90
43530;DHT22;55654;50.966;6.878;2023-11-19T15:50:53;11.30;99.90
43530;DHT22;55654;50.966;6.878;2023-11-19T15:53:22;11.30;99.90
43530;DHT22;55654;50.966;6.878;2023-11-19T15:55:51;11.30;99.90
43530;DHT22;55654;50.966;6.878;2023-11-19T15:58:21;11.40;99.90
43530;DHT22;55654;50.966;6.878;2023-11-19T16:00:52;11.40;99.90
43530;DHT22;55654;50.966;6.878;2023-11-19T16:03:20;11.50;99.90
43530;DHT22;55654;50.966;6.878;2023-11-19T16:05:46;11.50;99.90
43530;DHT22;55654;50.966;6.878;2023-11-19T16:08:12;11.50;99.90
43530;DHT22;55654;50.966;6.878;2023-11-19T16:10:41;11.50;99.90
43530;DHT22;55654;50.966;6.878;2023-11-19T16:13:19;11.50;99.90
43530;DHT22;55654;50.966;6.878;2023-11-19T16:15:49;11.60;99.90
43530;DHT22;55654;50.966;6.878;2023-11-19T16:18:15;11.70;99.90